sensor_id;sensor_type;location;lat;lon;timestamp;temperature;humidity
47022;DHT22;32779;52.264;6.154;2024-02-21T00:01:35;9.20;99.90
47022;DHT22;32779;52.264;6.154;2024-02-21T00:04:01;9.20;99.90
47022;DHT22;32779;52.264;6.154;2024-02-21T00:06:27;9.20;99.90
47022;DHT22;32779;52.264;6.154;2024-02-21T00:08:52;9.20;99.90
47022;DHT22;32779;52.264;6.154;2024-02-21T00:11:18;9.20;99.90
47022;DHT22;32779;52.264;6.154;2024-02-21T00:13:44;9.20;99.90
47022;DHT22;32779;52.264;6.154;2024-02-21T00:16:09;9.20;99.90
47022;DHT22;32779;52.264;6.154;2024-02-21T00:18:36;9.30;99.90
47022;DHT22;32779;52.264;6.154;2024-02-21T00:21:02;9.20;99.90
47022;DHT22;32779;52.264;6.154;2024-02-21T00:23:28;9.20;99.90
47022;DHT22;32779;52.264;6.154;2024-02-21T00:25:54;9.20;99.90
47022;DHT22;32779;52.264;6.154;2024-02-21T00:28:19;9.30;99.90
47022;DHT22;32779;52.264;6.154;2024-02-21T00:30:46;9.30;99.90
47022;DHT22;32779;52.264;6.154;2024-02-21T00:33:13;9.30;99.90
47022;DHT22;32779;52.264;6.154;2024-02-21T00:35:39;9.30;99.90
47022;DHT22;32779;52.264;6.154;2024-02-21T00:38:05;9.30;99.90
47022;DHT22;32779;52.264;6.154;2024-02-21T00:40:30;9.40;99.90
47022;DHT22;32779;52.264;6.154;2024-02-21T00:42:56;9.40;99.90
47022;DHT22;32779;52.264;6.154;2024-02-21T00:45:22;9.40;99.90
47022;DHT22;32779;52.264;6.154;2024-02-21T00:47:47;9.40;99.90
47022;DHT22;32779;52.264;6.154;2024-02-21T00:50:13;9.40;99.90
47022;DHT22;32779;52.264;6.154;2024-02-21T00:52:38;9.50;99.90
47022;DHT22;32779;52.264;6.154;2024-02-21T00:55:05;9.50;99.90
47022;DHT22;32779;52.264;6.154;2024-02-21T00:57:30;9.50;99.90
47022;DHT22;32779;52.264;6.154;2024-02-21T00:59:57;9.50;99.90
47022;DHT22;32779;52.264;6.154;2024-02-21T01:02:22;9.50;99.90
47022;DHT22;32779;52.264;6.154;2024-02-21T01:04:48;9.50;99.90
47022;DHT22;32779;52.264;6.154;2024-02-21T01:07:14;9.50;99.90
47022;DHT22;32779;52.264;6.154;2024-02-21T01:09:39;9.50;99.90
47022;DHT22;32779;52.264;6.154;2024-02-21T01:12:05;9.50;99.90
47022;DHT22;32779;52.264;6.154;2024-02-21T01:14:31;9.50;99.90
47022;DHT22;32779;52.264;6.154;2024-02-21T01:16:57;9.50;99.90
47022;DHT22;32779;52.264;6.154;2024-02-21T01:19:22;9.50;99.90
47022;DHT22;32779;52.264;6.154;2024-02-21T01:21:48;9.50;99.90
47022;DHT22;32779;52.264;6.154;2024-02-21T01:24:13;9.50;99.90
47022;DHT22;32779;52.264;6.154;2024-02-21T01:26:40;9.50;99.90
47022;DHT22;32779;52.264;6.154;2024-02-21T01:29:05;9.50;99.90
47022;DHT22;32779;52.264;6.154;2024-02-21T01:31:31;9.50;99.90
47022;DHT22;32779;52.264;6.154;2024-02-21T01:33:57;9.50;99.90
47022;DHT22;32779;52.264;6.154;2024-02-21T01:36:23;9.50;99.90
47022;DHT22;32779;52.264;6.154;2024-02-21T01:38:49;9.60;99.90
47022;DHT22;32779;52.264;6.154;2024-02-21T01:41:14;9.60;99.90
47022;DHT22;32779;52.264;6.154;2024-02-21T01:43:41;9.50;99.90
47022;DHT22;32779;52.264;6.154;2024-02-21T01:46:07;9.50;99.90
47022;DHT22;32779;52.264;6.154;2024-02-21T01:48:33;9.50;99.90
47022;DHT22;32779;52.264;6.154;2024-02-21T01:50:59;9.50;99.90
47022;DHT22;32779;52.264;6.154;2024-02-21T01:53:30;9.50;99.90
47022;DHT22;32779;52.264;6.154;2024-02-21T01:55:56;9.50;99.90
47022;DHT22;32779;52.264;6.154;2024-02-21T01:58:22;9.50;99.90
47022;DHT22;32779;52.264;6.154;2024-02-21T02:00:50;9.50;99.90
47022;DHT22;32779;52.264;6.154;2024-02-21T02:03:16;9.50;99.90
47022;DHT22;32779;52.264;6.154;2024-02-21T02:05:49;9.40;99.90
47022;DHT22;32779;52.264;6.154;2024-02-21T02:08:17;9.40;99.90
47022;DHT22;32779;52.264;6.154;2024-02-21T02:10:44;9.40;99.90
47022;DHT22;32779;52.264;6.154;2024-02-21T02:13:09;9.40;99.90
47022;DHT22;32779;52.264;6.154;2024-02-21T02:15:42;9.40;99.90
47022;DHT22;32779;52.264;6.154;2024-02-21T02:18:08;9.40;99.90
47022;DHT22;32779;52.264;6.154;2024-02-21T02:20:35;9.40;99.90
47022;DHT22;32779;52.264;6.154;2024-02-21T02:25:52;9.40;99.90
47022;DHT22;32779;52.264;6.154;2024-02-21T02:28:19;9.40;99.90
47022;DHT22;32779;52.264;6.154;2024-02-21T02:30:44;9.40;99.90
47022;DHT22;32779;52.264;6.154;2024-02-21T02:33:10;9.40;99.90
47022;DHT22;32779;52.264;6.154;2024-02-21T02:35:36;9.40;99.90
47022;DHT22;32779;52.264;6.154;2024-02-21T02:38:02;9.40;99.90
47022;DHT22;32779;52.264;6.154;2024-02-21T02:40:28;9.40;99.90
47022;DHT22;32779;52.264;6.154;2024-02-21T02:42:53;9.40;99.90
47022;DHT22;32779;52.264;6.154;2024-02-21T02:45:21;9.40;99.90
47022;DHT22;32779;52.264;6.154;2024-02-21T02:47:48;9.40;99.90
47022;DHT22;32779;52.264;6.154;2024-02-21T02:50:14;9.40;99.90
47022;DHT22;32779;52.264;6.154;2024-02-21T02:52:40;9.50;99.90
47022;DHT22;32779;52.264;6.154;2024-02-21T02:55:06;9.50;99.90
47022;DHT22;32779;52.264;6.154;2024-02-21T02:57:32;9.40;99.90
47022;DHT22;32779;52.264;6.154;2024-02-21T02:59:58;9.50;99.90
47022;DHT22;32779;52.264;6.154;2024-02-21T03:02:24;9.50;99.90
47022;DHT22;32779;52.264;6.154;2024-02-21T03:04:49;9.50;99.90
47022;DHT22;32779;52.264;6.154;2024-02-21T03:07:15;9.50;99.90
47022;DHT22;32779;52.264;6.154;2024-02-21T03:09:41;9.50;99.90
47022;DHT22;32779;52.264;6.154;2024-02-21T03:12:10;9.40;99.90
47022;DHT22;32779;52.264;6.154;2024-02-21T03:14:35;9.40;99.90
47022;DHT22;32779;52.264;6.154;2024-02-21T03:17:01;9.40;99.90
47022;DHT22;32779;52.264;6.154;2024-02-21T03:19:28;9.40;99.90
47022;DHT22;32779;52.264;6.154;2024-02-21T03:21:53;9.40;99.90
47022;DHT22;32779;52.264;6.154;2024-02-21T03:24:19;9.40;99.90
47022;DHT22;32779;52.264;6.154;2024-02-21T03:26:45;9.50;99.90
47022;DHT22;32779;52.264;6.154;2024-02-21T03:29:15;9.50;99.90
47022;DHT22;32779;52.264;6.154;2024-02-21T03:31:42;9.50;99.90
47022;DHT22;32779;52.264;6.154;2024-02-21T03:34:07;9.50;99.90
47022;DHT22;32779;52.264;6.154;2024-02-21T03:36:33;9.50;99.90
47022;DHT22;32779;52.264;6.154;2024-02-21T03:38:59;9.50;99.90
47022;DHT22;32779;52.264;6.154;2024-02-21T03:41:25;9.50;99.90
47022;DHT22;32779;52.264;6.154;2024-02-21T03:43:50;9.40;99.90
47022;DHT22;32779;52.264;6.154;2024-02-21T03:46:16;9.50;99.90
47022;DHT22;32779;52.264;6.154;2024-02-21T03:48:41;9.40;99.90
47022;DHT22;32779;52.264;6.154;2024-02-21T03:51:08;9.50;99.90
47022;DHT22;32779;52.264;6.154;2024-02-21T03:53:34;9.50;99.90
47022;DHT22;32779;52.264;6.154;2024-02-21T03:56:03;9.40;99.90
47022;DHT22;32779;52.264;6.154;2024-02-21T03:58:33;9.50;99.90
47022;DHT22;32779;52.264;6.154;2024-02-21T04:01:02;9.50;99.90
47022;DHT22;32779;52.264;6.154;2024-02-21T04:03:29;9.40;99.90
47022;DHT22;32779;52.264;6.154;2024-02-21T04:05:54;9.40;99.90
47022;DHT22;32779;52.264;6.154;2024-02-21T04:08:20;9.40;99.90
47022;DHT22;32779;52.264;6.154;2024-02-21T04:10:45;9.40;99.90
47022;DHT22;32779;52.264;6.154;2024-02-21T04:13:11;9.40;99.90
47022;DHT22;32779;52.264;6.154;2024-02-21T04:15:37;9.40;99.90
47022;DHT22;32779;52.264;6.154;2024-02-21T04:18:02;9.40;99.90
47022;DHT22;32779;52.264;6.154;2024-02-21T04:20:29;9.40;99.90
47022;DHT22;32779;52.264;6.154;2024-02-21T04:22:55;9.40;99.90
47022;DHT22;32779;52.264;6.154;2024-02-21T04:25:20;9.40;99.90
47022;DHT22;32779;52.264;6.154;2024-02-21T04:27:46;9.40;99.90
47022;DHT22;32779;52.264;6.154;2024-02-21T04:30:12;9.40;99.90
47022;DHT22;32779;52.264;6.154;2024-02-21T04:32:38;9.30;99.90
47022;DHT22;32779;52.264;6.154;2024-02-21T04:35:04;9.30;99.90
47022;DHT22;32779;52.264;6.154;2024-02-21T04:37:30;9.30;99.90
47022;DHT22;32779;52.264;6.154;2024-02-21T04:39:56;9.30;99.90
47022;DHT22;32779;52.264;6.154;2024-02-21T04:42:21;9.20;99.90
47022;DHT22;32779;52.264;6.154;2024-02-21T04:44:47;9.30;99.90
47022;DHT22;32779;52.264;6.154;2024-02-21T04:47:12;9.20;99.90
47022;DHT22;32779;52.264;6.154;2024-02-21T04:49:39;9.20;99.90
47022;DHT22;32779;52.264;6.154;2024-02-21T04:52:04;9.20;99.90
47022;DHT22;32779;52.264;6.154;2024-02-21T04:54:30;9.20;99.90
47022;DHT22;32779;52.264;6.154;2024-02-21T04:56:55;9.20;99.90
47022;DHT22;32779;52.264;6.154;2024-02-21T04:59:21;9.20;99.90
47022;DHT22;32779;52.264;6.154;2024-02-21T05:01:46;9.20;99.90
47022;DHT22;32779;52.264;6.154;2024-02-21T05:04:12;9.20;99.90
47022;DHT22;32779;52.264;6.154;2024-02-21T05:06:41;9.10;99.90
47022;DHT22;32779;52.264;6.154;2024-02-21T05:09:09;9.10;99.90
47022;DHT22;32779;52.264;6.154;2024-02-21T05:11:35;9.10;99.90
47022;DHT22;32779;52.264;6.154;2024-02-21T05:14:01;9.10;99.90
47022;DHT22;32779;52.264;6.154;2024-02-21T05:16:26;9.10;99.90
47022;DHT22;32779;52.264;6.154;2024-02-21T05:18:52;9.10;99.90
47022;DHT22;32779;52.264;6.154;2024-02-21T05:21:18;9.10;99.90
47022;DHT22;32779;52.264;6.154;2024-02-21T05:23:43;9.00;99.90
47022;DHT22;32779;52.264;6.154;2024-02-21T05:26:09;9.00;99.90
47022;DHT22;32779;52.264;6.154;2024-02-21T05:28:34;9.00;99.90
47022;DHT22;32779;52.264;6.154;2024-02-21T05:31:00;9.00;99.90
47022;DHT22;32779;52.264;6.154;2024-02-21T05:33:26;9.00;99.90
47022;DHT22;32779;52.264;6.154;2024-02-21T05:35:51;9.00;99.90
47022;DHT22;32779;52.264;6.154;2024-02-21T05:38:17;9.00;99.90
47022;DHT22;32779;52.264;6.154;2024-02-21T05:40:44;8.90;99.90
47022;DHT22;32779;52.264;6.154;2024-02-21T05:43:10;8.90;99.90
47022;DHT22;32779;52.264;6.154;2024-02-21T05:45:36;8.90;99.90
47022;DHT22;32779;52.264;6.154;2024-02-21T05:48:02;8.90;99.90
47022;DHT22;32779;52.264;6.154;2024-02-21T05:50:28;8.90;99.90
47022;DHT22;32779;52.264;6.154;2024-02-21T05:52:56;8.90;99.90
47022;DHT22;32779;52.264;6.154;2024-02-21T05:55:22;8.80;99.90
47022;DHT22;32779;52.264;6.154;2024-02-21T05:57:48;8.80;99.90
47022;DHT22;32779;52.264;6.154;2024-02-21T06:00:14;8.80;99.90
47022;DHT22;32779;52.264;6.154;2024-02-21T06:02:40;8.80;99.90
47022;DHT22;32779;52.264;6.154;2024-02-21T06:05:06;8.80;99.90
47022;DHT22;32779;52.264;6.154;2024-02-21T06:07:35;8.80;99.90
47022;DHT22;32779;52.264;6.154;2024-02-21T06:10:04;8.80;99.90
47022;DHT22;32779;52.264;6.154;2024-02-21T06:12:30;8.80;99.90
47022;DHT22;32779;52.264;6.154;2024-02-21T06:14:55;8.80;99.90
47022;DHT22;32779;52.264;6.154;2024-02-21T06:17:21;8.70;99.90
47022;DHT22;32779;52.264;6.154;2024-02-21T06:19:46;8.70;99.90
47022;DHT22;32779;52.264;6.154;2024-02-21T06:22:12;8.80;99.90
47022;DHT22;32779;52.264;6.154;2024-02-21T06:24:38;8.80;99.90
47022;DHT22;32779;52.264;6.154;2024-02-21T06:27:04;8.80;99.90
47022;DHT22;32779;52.264;6.154;2024-02-21T06:29:34;8.80;99.90
47022;DHT22;32779;52.264;6.154;2024-02-21T06:32:00;8.80;99.90
47022;DHT22;32779;52.264;6.154;2024-02-21T06:34:26;8.80;99.90
47022;DHT22;32779;52.264;6.154;2024-02-21T06:36:51;8.80;99.90
47022;DHT22;32779;52.264;6.154;2024-02-21T06:39:17;8.80;99.90
47022;DHT22;32779;52.264;6.154;2024-02-21T06:41:43;8.80;99.90
47022;DHT22;32779;52.264;6.154;2024-02-21T06:44:09;8.80;99.90
47022;DHT22;32779;52.264;6.154;2024-02-21T06:46:34;8.80;99.90
47022;DHT22;32779;52.264;6.154;2024-02-21T06:49:01;8.80;99.90
47022;DHT22;32779;52.264;6.154;2024-02-21T06:51:27;8.90;99.90
47022;DHT22;32779;52.264;6.154;2024-02-21T06:53:56;8.90;99.90
47022;DHT22;32779;52.264;6.154;2024-02-21T06:56:25;8.90;99.90
47022;DHT22;32779;52.264;6.154;2024-02-21T06:58:55;8.90;99.90
47022;DHT22;32779;52.264;6.154;2024-02-21T07:01:21;8.90;99.90
47022;DHT22;32779;52.264;6.154;2024-02-21T07:03:46;8.90;99.90
47022;DHT22;32779;52.264;6.154;2024-02-21T07:06:12;8.90;99.90
47022;DHT22;32779;52.264;6.154;2024-02-21T07:08:38;8.90;99.90
47022;DHT22;32779;52.264;6.154;2024-02-21T07:11:04;8.90;99.90
47022;DHT22;32779;52.264;6.154;2024-02-21T07:13:30;8.90;99.90
47022;DHT22;32779;52.264;6.154;2024-02-21T07:15:55;8.90;99.90
47022;DHT22;32779;52.264;6.154;2024-02-21T07:18:21;8.90;99.90
47022;DHT22;32779;52.264;6.154;2024-02-21T07:20:46;8.90;99.90
47022;DHT22;32779;52.264;6.154;2024-02-21T07:23:12;8.90;99.90
47022;DHT22;32779;52.264;6.154;2024-02-21T07:25:38;9.00;99.90
47022;DHT22;32779;52.264;6.154;2024-02-21T07:28:05;9.00;99.90
47022;DHT22;32779;52.264;6.154;2024-02-21T07:30:31;8.90;99.90
47022;DHT22;32779;52.264;6.154;2024-02-21T07:32:56;8.90;99.90
47022;DHT22;32779;52.264;6.154;2024-02-21T07:35:22;8.90;99.90
47022;DHT22;32779;52.264;6.154;2024-02-21T07:37:47;8.90;99.90
47022;DHT22;32779;52.264;6.154;2024-02-21T07:40:13;8.80;99.90
47022;DHT22;32779;52.264;6.154;2024-02-21T07:42:39;8.90;99.90
47022;DHT22;32779;52.264;6.154;2024-02-21T07:45:07;8.90;99.90
47022;DHT22;32779;52.264;6.154;2024-02-21T07:47:32;8.90;99.90
47022;DHT22;32779;52.264;6.154;2024-02-21T07:49:58;8.90;99.90
47022;DHT22;32779;52.264;6.154;2024-02-21T07:52:23;9.00;99.90
47022;DHT22;32779;52.264;6.154;2024-02-21T07:54:51;9.00;99.90
47022;DHT22;32779;52.264;6.154;2024-02-21T07:57:16;9.00;99.90
47022;DHT22;32779;52.264;6.154;2024-02-21T07:59:42;9.00;99.90
47022;DHT22;32779;52.264;6.154;2024-02-21T08:02:08;9.00;99.90
47022;DHT22;32779;52.264;6.154;2024-02-21T08:04:34;9.00;99.90
47022;DHT22;32779;52.264;6.154;2024-02-21T08:06:59;9.00;99.90
47022;DHT22;32779;52.264;6.154;2024-02-21T08:09:29;9.00;99.90
47022;DHT22;32779;52.264;6.154;2024-02-21T08:11:55;9.00;99.90
47022;DHT22;32779;52.264;6.154;2024-02-21T08:14:21;9.00;99.90
47022;DHT22;32779;52.264;6.154;2024-02-21T08:16:47;9.10;99.90
47022;DHT22;32779;52.264;6.154;2024-02-21T08:19:13;9.10;99.90
47022;DHT22;32779;52.264;6.154;2024-02-21T08:21:38;9.10;99.90
47022;DHT22;32779;52.264;6.154;2024-02-21T08:24:04;9.20;99.90
47022;DHT22;32779;52.264;6.154;2024-02-21T08:26:30;9.20;99.90
47022;DHT22;32779;52.264;6.154;2024-02-21T08:28:59;9.30;99.90
47022;DHT22;32779;52.264;6.154;2024-02-21T08:31:26;9.30;99.90
47022;DHT22;32779;52.264;6.154;2024-02-21T08:34:00;9.30;99.90
47022;DHT22;32779;52.264;6.154;2024-02-21T08:36:33;9.30;99.90
47022;DHT22;32779;52.264;6.154;2024-02-21T08:38:59;9.40;99.90
47022;DHT22;32779;52.264;6.154;2024-02-21T08:41:25;9.40;99.90
47022;DHT22;32779;52.264;6.154;2024-02-21T08:43:52;9.40;99.90
47022;DHT22;32779;52.264;6.154;2024-02-21T08:46:22;9.40;99.90
47022;DHT22;32779;52.264;6.154;2024-02-21T08:48:49;9.40;99.90
47022;DHT22;32779;52.264;6.154;2024-02-21T08:51:15;9.40;99.90
47022;DHT22;32779;52.264;6.154;2024-02-21T08:53:41;9.40;99.90
47022;DHT22;32779;52.264;6.154;2024-02-21T08:56:06;9.40;99.90
47022;DHT22;32779;52.264;6.154;2024-02-21T08:58:36;9.40;99.90
47022;DHT22;32779;52.264;6.154;2024-02-21T09:01:03;9.40;99.90
47022;DHT22;32779;52.264;6.154;2024-02-21T09:03:31;9.40;99.90
47022;DHT22;32779;52.264;6.154;2024-02-21T09:05:57;9.40;99.90
47022;DHT22;32779;52.264;6.154;2024-02-21T09:08:22;9.40;99.90
47022;DHT22;32779;52.264;6.154;2024-02-21T09:10:49;9.40;99.90
47022;DHT22;32779;52.264;6.154;2024-02-21T09:13:15;9.50;99.90
47022;DHT22;32779;52.264;6.154;2024-02-21T09:15:41;9.40;99.90
47022;DHT22;32779;52.264;6.154;2024-02-21T09:18:06;9.50;99.90
47022;DHT22;32779;52.264;6.154;2024-02-21T09:20:32;9.50;99.90
47022;DHT22;32779;52.264;6.154;2024-02-21T09:22:57;9.50;99.90
47022;DHT22;32779;52.264;6.154;2024-02-21T09:25:23;9.60;99.90
47022;DHT22;32779;52.264;6.154;2024-02-21T09:27:49;9.60;99.90
47022;DHT22;32779;52.264;6.154;2024-02-21T09:30:14;9.60;99.90
47022;DHT22;32779;52.264;6.154;2024-02-21T09:32:40;9.60;99.90
47022;DHT22;32779;52.264;6.154;2024-02-21T09:35:06;9.60;99.90
47022;DHT22;32779;52.264;6.154;2024-02-21T09:37:31;9.60;99.90
47022;DHT22;32779;52.264;6.154;2024-02-21T09:39:57;9.70;99.90
47022;DHT22;32779;52.264;6.154;2024-02-21T09:42:39;9.70;99.90
47022;DHT22;32779;52.264;6.154;2024-02-21T09:45:20;9.70;99.90
47022;DHT22;32779;52.264;6.154;2024-02-21T09:50:40;9.80;99.90
47022;DHT22;32779;52.264;6.154;2024-02-21T09:53:11;9.80;99.90
47022;DHT22;32779;52.264;6.154;2024-02-21T09:55:37;9.80;99.90
47022;DHT22;32779;52.264;6.154;2024-02-21T09:58:05;9.80;99.90
47022;DHT22;32779;52.264;6.154;2024-02-21T10:00:31;9.90;99.90
47022;DHT22;32779;52.264;6.154;2024-02-21T10:02:58;9.90;99.90
47022;DHT22;32779;52.264;6.154;2024-02-21T10:05:24;9.90;99.90
47022;DHT22;32779;52.264;6.154;2024-02-21T10:07:51;9.90;99.90
47022;DHT22;32779;52.264;6.154;2024-02-21T10:10:17;10.00;99.90
47022;DHT22;32779;52.264;6.154;2024-02-21T10:12:53;10.00;99.90
47022;DHT22;32779;52.264;6.154;2024-02-21T10:15:22;10.10;99.90
47022;DHT22;32779;52.264;6.154;2024-02-21T10:17:59;10.20;99.90
47022;DHT22;32779;52.264;6.154;2024-02-21T10:20:25;10.20;99.90
47022;DHT22;32779;52.264;6.154;2024-02-21T10:23:01;10.20;99.90
47022;DHT22;32779;52.264;6.154;2024-02-21T10:25:28;10.30;99.90
47022;DHT22;32779;52.264;6.154;2024-02-21T10:27:54;10.30;99.90
47022;DHT22;32779;52.264;6.154;2024-02-21T10:30:20;10.30;99.90
47022;DHT22;32779;52.264;6.154;2024-02-21T10:32:53;10.30;99.90
47022;DHT22;32779;52.264;6.154;2024-02-21T10:35:29;10.40;99.90
47022;DHT22;32779;52.264;6.154;2024-02-21T10:37:56;10.40;99.90
47022;DHT22;32779;52.264;6.154;2024-02-21T10:40:29;10.40;99.90
47022;DHT22;32779;52.264;6.154;2024-02-21T10:42:59;10.40;99.90
47022;DHT22;32779;52.264;6.154;2024-02-21T10:45:34;10.40;99.90
47022;DHT22;32779;52.264;6.154;2024-02-21T10:48:12;10.50;99.90
47022;DHT22;32779;52.264;6.154;2024-02-21T10:53:24;10.40;99.90
47022;DHT22;32779;52.264;6.154;2024-02-21T10:56:33;10.50;99.90
47022;DHT22;32779;52.264;6.154;2024-02-21T10:59:06;10.50;99.90
47022;DHT22;32779;52.264;6.154;2024-02-21T11:01:32;10.50;99.90
47022;DHT22;32779;52.264;6.154;2024-02-21T11:04:08;10.50;99.90
47022;DHT22;32779;52.264;6.154;2024-02-21T11:06:36;10.40;99.90
47022;DHT22;32779;52.264;6.154;2024-02-21T11:09:07;10.40;99.90
47022;DHT22;32779;52.264;6.154;2024-02-21T11:11:39;10.40;99.90
47022;DHT22;32779;52.264;6.154;2024-02-21T11:14:18;10.40;99.90
47022;DHT22;32779;52.264;6.154;2024-02-21T11:16:44;10.40;99.90
47022;DHT22;32779;52.264;6.154;2024-02-21T11:21:44;10.40;99.90
47022;DHT22;32779;52.264;6.154;2024-02-21T11:24:10;10.30;99.90
47022;DHT22;32779;52.264;6.154;2024-02-21T11:26:38;10.30;99.90
47022;DHT22;32779;52.264;6.154;2024-02-21T11:29:04;10.30;99.90
47022;DHT22;32779;52.264;6.154;2024-02-21T11:31:44;10.30;99.90
47022;DHT22;32779;52.264;6.154;2024-02-21T11:34:13;10.30;99.90
47022;DHT22;32779;52.264;6.154;2024-02-21T11:36:49;10.30;99.90
47022;DHT22;32779;52.264;6.154;2024-02-21T11:39:22;10.30;99.90
47022;DHT22;32779;52.264;6.154;2024-02-21T11:42:06;10.30;99.90
47022;DHT22;32779;52.264;6.154;2024-02-21T11:44:36;10.30;99.90
47022;DHT22;32779;52.264;6.154;2024-02-21T11:47:04;10.30;99.90
47022;DHT22;32779;52.264;6.154;2024-02-21T11:49:30;10.30;99.90
47022;DHT22;32779;52.264;6.154;2024-02-21T11:52:03;10.30;99.90
47022;DHT22;32779;52.264;6.154;2024-02-21T11:54:31;10.20;99.90
47022;DHT22;32779;52.264;6.154;2024-02-21T11:56:57;10.20;99.90
47022;DHT22;32779;52.264;6.154;2024-02-21T11:59:22;10.20;99.90
47022;DHT22;32779;52.264;6.154;2024-02-21T12:01:49;10.10;99.90
47022;DHT22;32779;52.264;6.154;2024-02-21T12:04:15;10.00;99.90
47022;DHT22;32779;52.264;6.154;2024-02-21T12:06:43;10.10;99.90
47022;DHT22;32779;52.264;6.154;2024-02-21T12:09:09;10.00;99.90
47022;DHT22;32779;52.264;6.154;2024-02-21T12:11:35;10.00;99.90
47022;DHT22;32779;52.264;6.154;2024-02-21T12:14:01;10.00;99.90
47022;DHT22;32779;52.264;6.154;2024-02-21T12:16:29;9.90;99.90
47022;DHT22;32779;52.264;6.154;2024-02-21T12:18:56;9.90;99.90
47022;DHT22;32779;52.264;6.154;2024-02-21T12:21:26;9.90;99.90
47022;DHT22;32779;52.264;6.154;2024-02-21T12:23:54;9.90;99.90
47022;DHT22;32779;52.264;6.154;2024-02-21T12:26:20;9.90;99.90
47022;DHT22;32779;52.264;6.154;2024-02-21T12:28:46;9.90;99.90
47022;DHT22;32779;52.264;6.154;2024-02-21T12:31:12;9.90;99.90
47022;DHT22;32779;52.264;6.154;2024-02-21T12:33:37;9.90;99.90
47022;DHT22;32779;52.264;6.154;2024-02-21T12:36:03;9.90;99.90
47022;DHT22;32779;52.264;6.154;2024-02-21T12:38:29;9.90;99.90
47022;DHT22;32779;52.264;6.154;2024-02-21T12:40:55;9.90;99.90
47022;DHT22;32779;52.264;6.154;2024-02-21T12:43:20;10.00;99.90
47022;DHT22;32779;52.264;6.154;2024-02-21T12:45:47;10.10;99.90
47022;DHT22;32779;52.264;6.154;2024-02-21T12:48:13;10.20;99.90
47022;DHT22;32779;52.264;6.154;2024-02-21T12:50:41;10.30;99.90
47022;DHT22;32779;52.264;6.154;2024-02-21T12:53:13;10.20;99.90
47022;DHT22;32779;52.264;6.154;2024-02-21T12:55:41;10.30;99.90
47022;DHT22;32779;52.264;6.154;2024-02-21T12:58:06;10.30;99.90
47022;DHT22;32779;52.264;6.154;2024-02-21T13:00:32;10.40;99.90
47022;DHT22;32779;52.264;6.154;2024-02-21T13:02:58;10.40;99.90
47022;DHT22;32779;52.264;6.154;2024-02-21T13:05:24;10.40;99.90
47022;DHT22;32779;52.264;6.154;2024-02-21T13:07:49;10.40;99.90
47022;DHT22;32779;52.264;6.154;2024-02-21T13:10:15;10.40;99.90
47022;DHT22;32779;52.264;6.154;2024-02-21T13:12:41;10.40;99.90
47022;DHT22;32779;52.264;6.154;2024-02-21T13:15:07;10.40;99.90
47022;DHT22;32779;52.264;6.154;2024-02-21T13:17:32;10.40;99.90
47022;DHT22;32779;52.264;6.154;2024-02-21T13:19:58;10.40;99.90
47022;DHT22;32779;52.264;6.154;2024-02-21T13:22:24;10.40;99.90
47022;DHT22;32779;52.264;6.154;2024-02-21T13:24:52;10.50;99.90
47022;DHT22;32779;52.264;6.154;2024-02-21T13:27:17;10.50;99.90
47022;DHT22;32779;52.264;6.154;2024-02-21T13:29:43;10.50;99.90
47022;DHT22;32779;52.264;6.154;2024-02-21T13:32:08;10.60;99.90
47022;DHT22;32779;52.264;6.154;2024-02-21T13:34:34;10.60;99.90
47022;DHT22;32779;52.264;6.154;2024-02-21T13:36:59;10.60;99.90
47022;DHT22;32779;52.264;6.154;2024-02-21T13:39:25;10.60;99.90
47022;DHT22;32779;52.264;6.154;2024-02-21T13:41:51;10.60;99.90
47022;DHT22;32779;52.264;6.154;2024-02-21T13:44:16;10.60;99.90
47022;DHT22;32779;52.264;6.154;2024-02-21T13:46:42;10.60;99.90
47022;DHT22;32779;52.264;6.154;2024-02-21T13:49:07;10.70;99.90
47022;DHT22;32779;52.264;6.154;2024-02-21T13:51:34;10.70;99.90
47022;DHT22;32779;52.264;6.154;2024-02-21T13:54:04;10.70;99.90
47022;DHT22;32779;52.264;6.154;2024-02-21T13:56:30;10.60;99.90
47022;DHT22;32779;52.264;6.154;2024-02-21T13:58:58;10.60;99.90
47022;DHT22;32779;52.264;6.154;2024-02-21T14:01:23;10.60;99.90
47022;DHT22;32779;52.264;6.154;2024-02-21T14:03:49;10.50;99.90
47022;DHT22;32779;52.264;6.154;2024-02-21T14:06:14;10.50;99.90
47022;DHT22;32779;52.264;6.154;2024-02-21T14:08:40;10.50;99.90
47022;DHT22;32779;52.264;6.154;2024-02-21T14:11:07;10.50;99.90
47022;DHT22;32779;52.264;6.154;2024-02-21T14:13:32;10.60;99.90
47022;DHT22;32779;52.264;6.154;2024-02-21T14:15:58;10.60;99.90
47022;DHT22;32779;52.264;6.154;2024-02-21T14:18:23;10.60;99.90
47022;DHT22;32779;52.264;6.154;2024-02-21T14:20:49;10.70;99.90
47022;DHT22;32779;52.264;6.154;2024-02-21T14:23:14;10.70;99.90
47022;DHT22;32779;52.264;6.154;2024-02-21T14:25:40;10.70;99.90
47022;DHT22;32779;52.264;6.154;2024-02-21T14:28:07;10.70;99.90
47022;DHT22;32779;52.264;6.154;2024-02-21T14:30:35;10.70;99.90
47022;DHT22;32779;52.264;6.154;2024-02-21T14:33:00;10.70;99.90
47022;DHT22;32779;52.264;6.154;2024-02-21T14:35:26;10.70;99.90
47022;DHT22;32779;52.264;6.154;2024-02-21T14:37:52;10.70;99.90
47022;DHT22;32779;52.264;6.154;2024-02-21T14:40:22;10.70;99.90
47022;DHT22;32779;52.264;6.154;2024-02-21T14:42:48;10.80;99.90
47022;DHT22;32779;52.264;6.154;2024-02-21T14:45:13;10.80;99.90
47022;DHT22;32779;52.264;6.154;2024-02-21T14:47:39;10.80;99.90
47022;DHT22;32779;52.264;6.154;2024-02-21T14:50:05;10.80;99.90
47022;DHT22;32779;52.264;6.154;2024-02-21T14:52:32;10.70;99.90
47022;DHT22;32779;52.264;6.154;2024-02-21T14:54:58;10.60;99.90
47022;DHT22;32779;52.264;6.154;2024-02-21T14:57:24;10.60;99.90
47022;DHT22;32779;52.264;6.154;2024-02-21T14:59:50;10.60;99.90
47022;DHT22;32779;52.264;6.154;2024-02-21T15:02:24;10.60;99.90
47022;DHT22;32779;52.264;6.154;2024-02-21T15:04:50;10.60;99.90
47022;DHT22;32779;52.264;6.154;2024-02-21T15:07:20;10.50;99.90
47022;DHT22;32779;52.264;6.154;2024-02-21T15:09:49;10.50;99.90
47022;DHT22;32779;52.264;6.154;2024-02-21T15:12:15;10.60;99.90
47022;DHT22;32779;52.264;6.154;2024-02-21T15:14:40;10.50;99.90
47022;DHT22;32779;52.264;6.154;2024-02-21T15:17:06;10.60;99.90
47022;DHT22;32779;52.264;6.154;2024-02-21T15:19:31;10.50;99.90
47022;DHT22;32779;52.264;6.154;2024-02-21T15:21:58;10.60;99.90
47022;DHT22;32779;52.264;6.154;2024-02-21T15:24:24;10.60;99.90
47022;DHT22;32779;52.264;6.154;2024-02-21T15:26:50;10.50;99.90
47022;DHT22;32779;52.264;6.154;2024-02-21T15:29:15;10.60;99.90
47022;DHT22;32779;52.264;6.154;2024-02-21T15:31:41;10.60;99.90
47022;DHT22;32779;52.264;6.154;2024-02-21T15:34:12;10.60;99.90
47022;DHT22;32779;52.264;6.154;2024-02-21T15:36:38;10.60;99.90
47022;DHT22;32779;52.264;6.154;2024-02-21T15:39:04;10.50;99.90
47022;DHT22;32779;52.264;6.154;2024-02-21T15:41:30;10.50;99.90
47022;DHT22;32779;52.264;6.154;2024-02-21T15:43:55;10.50;99.90
47022;DHT22;32779;52.264;6.154;2024-02-21T15:46:24;10.40;99.90
47022;DHT22;32779;52.264;6.154;2024-02-21T15:48:49;10.30;99.90